sensor_id;sensor_type;location;lat;lon;timestamp;pressure;altitude;pressure_sealevel;temperature;humidity
59987;BME280;46181;51.498;5.392;2024-02-26T00:02:30;99717.84;;;11.72;53.56934
59987;BME280;46181;51.498;5.392;2024-02-26T00:07:00;99713.38;;;11.69;53.69043
59987;BME280;46181;51.498;5.392;2024-02-26T00:11:30;99720.45;;;11.63;53.79492
59987;BME280;46181;51.498;5.392;2024-02-26T00:16:00;99722.65;;;11.59;53.9043
59987;BME280;46181;51.498;5.392;2024-02-26T00:20:30;99720.58;;;11.56;54.02441
59987;BME280;46181;51.498;5.392;2024-02-26T00:25:00;99720.56;;;11.52;54.13281
59987;BME280;46181;51.498;5.392;2024-02-26T00:29:30;99718.31;;;11.48;54.21777
59987;BME280;46181;51.498;5.392;2024-02-26T00:34:00;99716.95;;;11.48;54.19531
59987;BME280;46181;51.498;5.392;2024-02-26T00:38:30;99719.22;;;11.45;54.34863
59987;BME280;46181;51.498;5.392;2024-02-26T00:43:00;99704.1;;;11.42;54.28906
59987;BME280;46181;51.498;5.392;2024-02-26T00:47:30;99701.84;;;11.37;54.40625
59987;BME280;46181;51.498;5.392;2024-02-26T00:52:00;99697.45;;;11.32;54.55957
59987;BME280;46181;51.498;5.392;2024-02-26T00:56:30;99697.13;;;11.29;54.56738
59987;BME280;46181;51.498;5.392;2024-02-26T01:01:00;99697.2;;;11.27;54.7666
59987;BME280;46181;51.498;5.392;2024-02-26T01:05:30;99699.77;;;11.21;54.83887
59987;BME280;46181;51.498;5.392;2024-02-26T01:10:00;99710.61;;;11.19;54.97266
59987;BME280;46181;51.498;5.392;2024-02-26T01:14:30;99716.4;;;11.18;55.22949
59987;BME280;46181;51.498;5.392;2024-02-26T01:19:01;99713.02;;;11.09;55.39844
59987;BME280;46181;51.498;5.392;2024-02-26T01:23:30;99722.84;;;11.04;55.74219
59987;BME280;46181;51.498;5.392;2024-02-26T01:28:00;99728.33;;;11.02;56.0332
59987;BME280;46181;51.498;5.392;2024-02-26T01:32:30;99725.85;;;11;56.08691
59987;BME280;46181;51.498;5.392;2024-02-26T01:37:00;99725.99;;;10.96;56.27344
59987;BME280;46181;51.498;5.392;2024-02-26T01:41:30;99727.59;;;10.93;56.49512
59987;BME280;46181;51.498;5.392;2024-02-26T01:46:00;99733.92;;;10.87;56.80273
59987;BME280;46181;51.498;5.392;2024-02-26T01:50:31;99738.92;;;10.81;57.03125
59987;BME280;46181;51.498;5.392;2024-02-26T01:55:01;99745.52;;;10.82;57.17871
59987;BME280;46181;51.498;5.392;2024-02-26T01:59:31;99742.85;;;10.78;57.29785
59987;BME280;46181;51.498;5.392;2024-02-26T02:04:00;99743.25;;;10.77;57.53418
59987;BME280;46181;51.498;5.392;2024-02-26T02:08:30;99745.27;;;10.73;57.78711
59987;BME280;46181;51.498;5.392;2024-02-26T02:13:00;99752.98;;;10.7;58.05371
59987;BME280;46181;51.498;5.392;2024-02-26T02:17:30;99742.21;;;10.65;57.95703
59987;BME280;46181;51.498;5.392;2024-02-26T02:22:00;99744.45;;;10.63;57.96484
59987;BME280;46181;51.498;5.392;2024-02-26T02:26:30;99744.66;;;10.57;57.96875
59987;BME280;46181;51.498;5.392;2024-02-26T02:31:00;99750.16;;;10.55;58.01074
59987;BME280;46181;51.498;5.392;2024-02-26T02:35:30;99746.74;;;10.51;58.10645
59987;BME280;46181;51.498;5.392;2024-02-26T02:40:00;99750.3;;;10.45;58.13281
59987;BME280;46181;51.498;5.392;2024-02-26T02:44:30;99759.33;;;10.42;58.29688
59987;BME280;46181;51.498;5.392;2024-02-26T02:49:00;99758.39;;;10.32;58.39648
59987;BME280;46181;51.498;5.392;2024-02-26T02:53:30;99758.38;;;10.33;58.55469
59987;BME280;46181;51.498;5.392;2024-02-26T02:58:00;99749.34;;;10.3;58.57422
59987;BME280;46181;51.498;5.392;2024-02-26T03:02:30;99747.69;;;10.26;58.5791
59987;BME280;46181;51.498;5.392;2024-02-26T03:07:00;99752.38;;;10.21;58.84375
59987;BME280;46181;51.498;5.392;2024-02-26T03:11:30;99748.41;;;10.17;59.05078
59987;BME280;46181;51.498;5.392;2024-02-26T03:16:03;99757.36;;;10.14;59.0127
59987;BME280;46181;51.498;5.392;2024-02-26T03:20:30;99756.45;;;10.11;59.15527
59987;BME280;46181;51.498;5.392;2024-02-26T03:25:00;99757.94;;;10.1;59.18848
59987;BME280;46181;51.498;5.392;2024-02-26T03:29:30;99759.03;;;10.08;59.37695
59987;BME280;46181;51.498;5.392;2024-02-26T03:34:00;99752.41;;;10.02;59.61523
59987;BME280;46181;51.498;5.392;2024-02-26T03:38:30;99758.05;;;10.01;59.69141
59987;BME280;46181;51.498;5.392;2024-02-26T03:43:00;99753.63;;;10.01;59.75879
59987;BME280;46181;51.498;5.392;2024-02-26T03:47:30;99757.2;;;10.01;59.91602
59987;BME280;46181;51.498;5.392;2024-02-26T03:52:00;99757.54;;;9.97;60.12598
59987;BME280;46181;51.498;5.392;2024-02-26T03:56:30;99752.48;;;9.97;60.19238
59987;BME280;46181;51.498;5.392;2024-02-26T04:01:00;99757.24;;;9.98;60.28418
59987;BME280;46181;51.498;5.392;2024-02-26T04:05:30;99753.34;;;9.97;60.36035
59987;BME280;46181;51.498;5.392;2024-02-26T04:10:00;99756.23;;;9.97;60.43945
59987;BME280;46181;51.498;5.392;2024-02-26T04:14:30;99757.37;;;9.97;60.60938
59987;BME280;46181;51.498;5.392;2024-02-26T04:19:00;99760.88;;;9.98;60.62012
59987;BME280;46181;51.498;5.392;2024-02-26T04:23:30;99757.48;;;9.96;60.73047
59987;BME280;46181;51.498;5.392;2024-02-26T04:28:00;99761.58;;;9.96;60.80859
59987;BME280;46181;51.498;5.392;2024-02-26T04:32:30;99764.03;;;9.94;60.79492
59987;BME280;46181;51.498;5.392;2024-02-26T04:37:00;99780.8;;;9.94;61.05176
59987;BME280;46181;51.498;5.392;2024-02-26T04:41:30;99786.78;;;9.93;61.08594
59987;BME280;46181;51.498;5.392;2024-02-26T04:46:00;99787.94;;;9.91;61.16016
59987;BME280;46181;51.498;5.392;2024-02-26T04:50:30;99788.23;;;9.94;61.18848
59987;BME280;46181;51.498;5.392;2024-02-26T04:55:00;99797.69;;;9.96;61.21289
59987;BME280;46181;51.498;5.392;2024-02-26T04:59:30;99801.89;;;9.97;61.1582
59987;BME280;46181;51.498;5.392;2024-02-26T05:04:00;99787.72;;;9.94;61.2334
59987;BME280;46181;51.498;5.392;2024-02-26T05:08:30;99791.28;;;9.91;61.29688
59987;BME280;46181;51.498;5.392;2024-02-26T05:13:00;99787.38;;;9.9;61.33887
59987;BME280;46181;51.498;5.392;2024-02-26T05:17:30;99793;;;9.9;61.44043
59987;BME280;46181;51.498;5.392;2024-02-26T05:22:00;99801.86;;;9.9;61.42871
59987;BME280;46181;51.498;5.392;2024-02-26T05:26:33;99806.08;;;9.84;61.57813
59987;BME280;46181;51.498;5.392;2024-02-26T05:31:00;99805.16;;;9.85;61.72559
59987;BME280;46181;51.498;5.392;2024-02-26T05:35:30;99805.62;;;9.88;61.84277
59987;BME280;46181;51.498;5.392;2024-02-26T05:40:00;99816.5;;;9.91;61.79102
59987;BME280;46181;51.498;5.392;2024-02-26T05:44:31;99821.49;;;9.91;61.93555
59987;BME280;46181;51.498;5.392;2024-02-26T05:49:01;99820.09;;;9.85;61.96094
59987;BME280;46181;51.498;5.392;2024-02-26T05:53:30;99828.89;;;9.81;62.01074
59987;BME280;46181;51.498;5.392;2024-02-26T05:58:00;99835.08;;;9.81;61.96582
59987;BME280;46181;51.498;5.392;2024-02-26T06:02:30;99844.3;;;9.78;62.11914
59987;BME280;46181;51.498;5.392;2024-02-26T06:07:00;99848.05;;;9.76;62.0498
59987;BME280;46181;51.498;5.392;2024-02-26T06:11:30;99858.9;;;9.75;62.2168
59987;BME280;46181;51.498;5.392;2024-02-26T06:16:00;99860.3;;;9.75;62.28223
59987;BME280;46181;51.498;5.392;2024-02-26T06:20:30;99870.29;;;9.74;62.39355
59987;BME280;46181;51.498;5.392;2024-02-26T06:25:00;99875.13;;;9.76;62.45313
59987;BME280;46181;51.498;5.392;2024-02-26T06:29:30;99878.13;;;9.72;62.36816
59987;BME280;46181;51.498;5.392;2024-02-26T06:34:00;99888.98;;;9.71;62.5127
59987;BME280;46181;51.498;5.392;2024-02-26T06:38:30;99898.67;;;9.73;62.48242
59987;BME280;46181;51.498;5.392;2024-02-26T06:43:00;99892.49;;;9.71;62.45801
59987;BME280;46181;51.498;5.392;2024-02-26T06:47:30;99906.97;;;9.71;62.52539
59987;BME280;46181;51.498;5.392;2024-02-26T06:52:00;99901.58;;;9.66;62.58496
59987;BME280;46181;51.498;5.392;2024-02-26T06:56:30;99901.92;;;9.65;62.62891
59987;BME280;46181;51.498;5.392;2024-02-26T07:01:00;99911.38;;;9.62;62.70313
59987;BME280;46181;51.498;5.392;2024-02-26T07:05:30;99921.44;;;9.59;62.82129
59987;BME280;46181;51.498;5.392;2024-02-26T07:10:00;99926.77;;;9.62;62.80273
59987;BME280;46181;51.498;5.392;2024-02-26T07:14:30;99936.44;;;9.64;62.89551
59987;BME280;46181;51.498;5.392;2024-02-26T07:19:00;99935.06;;;9.65;62.8418
59987;BME280;46181;51.498;5.392;2024-02-26T07:23:30;99941.66;;;9.63;62.91602
59987;BME280;46181;51.498;5.392;2024-02-26T07:28:01;99947.28;;;9.63;63.01758
59987;BME280;46181;51.498;5.392;2024-02-26T07:32:30;99954.88;;;9.65;63.14453
59987;BME280;46181;51.498;5.392;2024-02-26T07:37:00;99964.08;;;9.63;63.1084
59987;BME280;46181;51.498;5.392;2024-02-26T07:41:30;99967.7;;;9.64;63.09863
59987;BME280;46181;51.498;5.392;2024-02-26T07:46:01;99982.56;;;9.67;63.03516
59987;BME280;46181;51.498;5.392;2024-02-26T07:50:30;99984.33;;;9.66;63.12402
59987;BME280;46181;51.498;5.392;2024-02-26T07:55:00;99996.78;;;9.69;62.9834
59987;BME280;46181;51.498;5.392;2024-02-26T07:59:30;99988.3;;;9.66;63.03223
59987;BME280;46181;51.498;5.392;2024-02-26T08:04:00;100004.7;;;9.65;63.13379
59987;BME280;46181;51.498;5.392;2024-02-26T08:08:30;100006.2;;;9.67;63.16016
59987;BME280;46181;51.498;5.392;2024-02-26T08:13:00;100012.3;;;9.66;63.20117
59987;BME280;46181;51.498;5.392;2024-02-26T08:17:30;100012.4;;;9.66;63.20215
59987;BME280;46181;51.498;5.392;2024-02-26T08:22:00;100025.8;;;9.67;63.2373
59987;BME280;46181;51.498;5.392;2024-02-26T08:26:30;100034.5;;;9.73;63.30078
59987;BME280;46181;51.498;5.392;2024-02-26T08:31:00;100033.4;;;9.73;63.22266
59987;BME280;46181;51.498;5.392;2024-02-26T08:35:30;100037.4;;;9.73;63.27832
59987;BME280;46181;51.498;5.392;2024-02-26T08:40:00;100048.6;;;9.77;63.29492
59987;BME280;46181;51.498;5.392;2024-02-26T08:44:30;100047.3;;;9.77;63.2168
59987;BME280;46181;51.498;5.392;2024-02-26T08:49:00;100063.5;;;9.79;63.31055
59987;BME280;46181;51.498;5.392;2024-02-26T08:53:30;100061.3;;;9.79;63.29785
59987;BME280;46181;51.498;5.392;2024-02-26T08:58:00;100068;;;9.79;63.26367
59987;BME280;46181;51.498;5.392;2024-02-26T09:02:30;100075.1;;;9.78;63.3877
59987;BME280;46181;51.498;5.392;2024-02-26T09:07:00;100078;;;9.8;63.36914
59987;BME280;46181;51.498;5.392;2024-02-26T09:11:30;100090.7;;;9.81;63.4248
59987;BME280;46181;51.498;5.392;2024-02-26T09:16:00;100092.8;;;9.79;63.37793
59987;BME280;46181;51.498;5.392;2024-02-26T09:20:30;100099.8;;;9.78;63.37598
59987;BME280;46181;51.498;5.392;2024-02-26T09:25:00;100115.7;;;9.75;63.39355
59987;BME280;46181;51.498;5.392;2024-02-26T09:29:30;100116.6;;;9.77;63.51953
59987;BME280;46181;51.498;5.392;2024-02-26T09:34:00;100118.8;;;9.81;63.49219
59987;BME280;46181;51.498;5.392;2024-02-26T09:38:30;100128.5;;;9.78;63.44336
59987;BME280;46181;51.498;5.392;2024-02-26T09:43:02;100146.7;;;9.8;63.53613
59987;BME280;46181;51.498;5.392;2024-02-26T09:47:32;100139.8;;;9.8;63.66016
59987;BME280;46181;51.498;5.392;2024-02-26T09:52:03;100146.2;;;9.82;63.59473
59987;BME280;46181;51.498;5.392;2024-02-26T09:56:30;100150.4;;;9.83;63.50781
59987;BME280;46181;51.498;5.392;2024-02-26T10:01:05;100160.8;;;9.79;63.70117
59987;BME280;46181;51.498;5.392;2024-02-26T10:05:31;100165.6;;;9.84;63.62109
59987;BME280;46181;51.498;5.392;2024-02-26T10:10:00;100167.1;;;9.81;63.7168
59987;BME280;46181;51.498;5.392;2024-02-26T10:14:30;100180.3;;;9.84;63.65332
59987;BME280;46181;51.498;5.392;2024-02-26T10:19:02;100188.3;;;9.86;63.73535
59987;BME280;46181;51.498;5.392;2024-02-26T10:23:30;100198.1;;;9.89;63.70605
59987;BME280;46181;51.498;5.392;2024-02-26T10:28:02;100206.1;;;9.86;63.73535
59987;BME280;46181;51.498;5.392;2024-02-26T10:32:30;100209.9;;;9.93;63.99316
59987;BME280;46181;51.498;5.392;2024-02-26T10:37:00;100220.4;;;9.95;63.7373
59987;BME280;46181;51.498;5.392;2024-02-26T10:41:31;100227.5;;;9.91;63.7666
59987;BME280;46181;51.498;5.392;2024-02-26T10:46:00;100228.3;;;9.92;63.88965
59987;BME280;46181;51.498;5.392;2024-02-26T10:50:30;100250.4;;;9.93;63.78027
59987;BME280;46181;51.498;5.392;2024-02-26T10:55:04;100258.5;;;9.93;63.88086
59987;BME280;46181;51.498;5.392;2024-02-26T10:59:31;100262.8;;;9.93;63.88086
59987;BME280;46181;51.498;5.392;2024-02-26T11:04:01;100272.2;;;9.96;63.90723
59987;BME280;46181;51.498;5.392;2024-02-26T11:08:31;100272.6;;;10.01;63.93652
59987;BME280;46181;51.498;5.392;2024-02-26T11:13:01;100284.2;;;10.03;63.90625
59987;BME280;46181;51.498;5.392;2024-02-26T11:17:30;100281.7;;;10;63.98145
59987;BME280;46181;51.498;5.392;2024-02-26T11:22:00;100284.9;;;10.07;63.92188
59987;BME280;46181;51.498;5.392;2024-02-26T11:26:31;100290.3;;;10.05;63.99805
59987;BME280;46181;51.498;5.392;2024-02-26T11:31:01;100298.4;;;10.03;63.97266
59987;BME280;46181;51.498;5.392;2024-02-26T11:35:31;100294.3;;;10.03;64.0625
59987;BME280;46181;51.498;5.392;2024-02-26T11:40:01;100301;;;10.04;63.99805
59987;BME280;46181;51.498;5.392;2024-02-26T11:44:41;100292.6;;;9.99;64.22559
59987;BME280;46181;51.498;5.392;2024-02-26T11:49:03;100297.4;;;10.03;63.97266
59987;BME280;46181;51.498;5.392;2024-02-26T11:53:35;100295.7;;;10.07;64.16992
59987;BME280;46181;51.498;5.392;2024-02-26T11:58:00;100296.1;;;10.13;64.05566
59987;BME280;46181;51.498;5.392;2024-02-26T12:02:47;100310.4;;;10.09;64.21777
59987;BME280;46181;51.498;5.392;2024-02-26T12:07:02;100313.6;;;10.05;64.29102
59987;BME280;46181;51.498;5.392;2024-02-26T12:11:31;100322.4;;;10.08;64.2168
59987;BME280;46181;51.498;5.392;2024-02-26T12:16:08;100326.7;;;10.06;64.30371
59987;BME280;46181;51.498;5.392;2024-02-26T12:20:31;100332.1;;;10.16;64.26172
59987;BME280;46181;51.498;5.392;2024-02-26T12:25:07;100332.8;;;10.07;64.34863
59987;BME280;46181;51.498;5.392;2024-02-26T12:29:31;100345.2;;;10.13;64.25781
59987;BME280;46181;51.498;5.392;2024-02-26T12:34:01;100360.9;;;10.13;64.30273
59987;BME280;46181;51.498;5.392;2024-02-26T12:38:31;100353.8;;;10.14;64.34961
59987;BME280;46181;51.498;5.392;2024-02-26T12:43:01;100372.9;;;10.14;64.36035
59987;BME280;46181;51.498;5.392;2024-02-26T12:47:30;100372.3;;;10.18;64.39941
59987;BME280;46181;51.498;5.392;2024-02-26T12:52:01;100370.7;;;10.15;64.40625
59987;BME280;46181;51.498;5.392;2024-02-26T12:56:31;100380.6;;;10.16;64.44336
59987;BME280;46181;51.498;5.392;2024-02-26T13:01:01;100380;;;10.11;64.43457
59987;BME280;46181;51.498;5.392;2024-02-26T13:05:31;100389.1;;;10.1;64.64648
59987;BME280;46181;51.498;5.392;2024-02-26T13:10:01;100391.7;;;10.12;64.64844
59987;BME280;46181;51.498;5.392;2024-02-26T13:14:32;100404.1;;;10.15;64.58594
59987;BME280;46181;51.498;5.392;2024-02-26T13:19:07;100407.3;;;10.12;64.68164
59987;BME280;46181;51.498;5.392;2024-02-26T13:23:31;100413.8;;;10.15;64.62012
59987;BME280;46181;51.498;5.392;2024-02-26T13:28:09;100420.9;;;10.13;64.62793
59987;BME280;46181;51.498;5.392;2024-02-26T13:32:31;100432.2;;;10.12;64.66113
59987;BME280;46181;51.498;5.392;2024-02-26T13:37:01;100434.9;;;10.12;64.63867
59987;BME280;46181;51.498;5.392;2024-02-26T13:41:31;100441.4;;;10.09;64.7002
59987;BME280;46181;51.498;5.392;2024-02-26T13:46:01;100451.7;;;10.06;64.74121
59987;BME280;46181;51.498;5.392;2024-02-26T13:50:31;100449.5;;;10.08;64.82227
59987;BME280;46181;51.498;5.392;2024-02-26T13:55:01;100465.6;;;10.12;64.87305
59987;BME280;46181;51.498;5.392;2024-02-26T13:59:31;100465.9;;;10.07;64.93359
59987;BME280;46181;51.498;5.392;2024-02-26T14:04:01;100469.8;;;10.08;64.87988
59987;BME280;46181;51.498;5.392;2024-02-26T14:08:31;100491.9;;;10.08;64.91309
59987;BME280;46181;51.498;5.392;2024-02-26T14:13:01;100491.1;;;10.11;64.91797
59987;BME280;46181;51.498;5.392;2024-02-26T14:17:31;100489.2;;;10.09;64.91309
59987;BME280;46181;51.498;5.392;2024-02-26T14:22:01;100493.6;;;10.12;65.04102
59987;BME280;46181;51.498;5.392;2024-02-26T14:26:31;100498.1;;;10.14;65.03418
59987;BME280;46181;51.498;5.392;2024-02-26T14:31:01;100508.8;;;10.15;64.93457
59987;BME280;46181;51.498;5.392;2024-02-26T14:35:31;100518.9;;;10.16;65.00293
59987;BME280;46181;51.498;5.392;2024-02-26T14:40:01;100519.5;;;10.18;65.01758
59987;BME280;46181;51.498;5.392;2024-02-26T14:44:31;100523.8;;;10.16;65.00391
59987;BME280;46181;51.498;5.392;2024-02-26T14:49:01;100544.3;;;10.16;65.00293
59987;BME280;46181;51.498;5.392;2024-02-26T14:53:31;100543.5;;;10.16;65.02637
59987;BME280;46181;51.498;5.392;2024-02-26T14:58:01;100542;;;10.11;65.08594
59987;BME280;46181;51.498;5.392;2024-02-26T15:02:31;100550.6;;;10.11;65.2207
59987;BME280;46181;51.498;5.392;2024-02-26T15:07:01;100561.1;;;10.13;65.25684
59987;BME280;46181;51.498;5.392;2024-02-26T15:11:31;100571.6;;;10.15;65.31543
59987;BME280;46181;51.498;5.392;2024-02-26T15:16:01;100588.9;;;10.19;65.33398
59987;BME280;46181;51.498;5.392;2024-02-26T15:20:31;100591.5;;;10.19;65.19922
59987;BME280;46181;51.498;5.392;2024-02-26T15:25:01;100592.8;;;10.23;65.37402
59987;BME280;46181;51.498;5.392;2024-02-26T15:29:31;100595.8;;;10.24;65.10449
59987;BME280;46181;51.498;5.392;2024-02-26T15:34:01;100602.8;;;10.2;65.1543
59987;BME280;46181;51.498;5.392;2024-02-26T15:38:31;100605.1;;;10.21;65.23633
59987;BME280;46181;51.498;5.392;2024-02-26T15:43:01;100612.5;;;10.23;65.22852
59987;BME280;46181;51.498;5.392;2024-02-26T15:47:31;100624.6;;;10.26;65.27539
59987;BME280;46181;51.498;5.392;2024-02-26T15:52:01;100631.1;;;10.27;65.25488
59987;BME280;46181;51.498;5.392;2024-02-26T15:56:31;100636.6;;;10.27;65.36719
59987;BME280;46181;51.498;5.392;2024-02-26T16:01:01;100650.3;;;10.28;65.3457
59987;BME280;46181;51.498;5.392;2024-02-26T16:05:31;100655;;;10.32;65.28516
59987;BME280;46181;51.498;5.392;2024-02-26T16:10:03;100666.6;;;10.3;65.36133
59987;BME280;46181;51.498;5.392;2024-02-26T16:14:36;100676.2;;;10.31;65.33984
59987;BME280;46181;51.498;5.392;2024-02-26T16:19:06;100680.4;;;10.3;65.33887
59987;BME280;46181;51.498;5.392;2024-02-26T16:23:31;100684.8;;;10.34;65.36621
59987;BME280;46181;51.498;5.392;2024-02-26T16:28:01;100692.1;;;10.34;65.2334
59987;BME280;46181;51.498;5.392;2024-02-26T16:32:31;100694.7;;;10.32;65.30762
59987;BME280;46181;51.498;5.392;2024-02-26T16:37:01;100699.7;;;10.35;65.30078
59987;BME280;46181;51.498;5.392;2024-02-26T16:41:31;100710.8;;;10.32;65.25195
59987;BME280;46181;51.498;5.392;2024-02-26T16:46:01;100724.8;;;10.31;65.25977
59987;BME280;46181;51.498;5.392;2024-02-26T16:50:31;100729.1;;;10.28;65.22266
59987;BME280;46181;51.498;5.392;2024-02-26T16:55:02;100742.3;;;10.3;65.33691
59987;BME280;46181;51.498;5.392;2024-02-26T16:59:31;100754.1;;;10.29;65.24707
59987;BME280;46181;51.498;5.392;2024-02-26T17:04:01;100758.1;;;10.26;65.0293
59987;BME280;46181;51.498;5.392;2024-02-26T17:08:31;100767.9;;;10.27;64.95117
59987;BME280;46181;51.498;5.392;2024-02-26T17:13:01;100783.4;;;10.28;64.87598
59987;BME280;46181;51.498;5.392;2024-02-26T17:17:31;100789;;;10.26;64.64746
59987;BME280;46181;51.498;5.392;2024-02-26T17:22:01;100797.2;;;10.27;64.7041
59987;BME280;46181;51.498;5.392;2024-02-26T17:26:32;100808.6;;;10.24;64.67773
59987;BME280;46181;51.498;5.392;2024-02-26T17:31:01;100816.8;;;10.27;64.62598
59987;BME280;46181;51.498;5.392;2024-02-26T17:35:31;100829.5;;;10.27;64.59277
59987;BME280;46181;51.498;5.392;2024-02-26T17:40:01;100840.6;;;10.28;64.46973
59987;BME280;46181;51.498;5.392;2024-02-26T17:44:36;100853.9;;;10.27;64.3457
59987;BME280;46181;51.498;5.392;2024-02-26T17:49:01;100869.3;;;10.27;64.27832
59987;BME280;46181;51.498;5.392;2024-02-26T17:53:31;100878.9;;;10.24;64.19531
59987;BME280;46181;51.498;5.392;2024-02-26T17:58:01;100886.2;;;10.28;64.21289
59987;BME280;46181;51.498;5.392;2024-02-26T18:02:31;100892.9;;;10.28;64.16699
59987;BME280;46181;51.498;5.392;2024-02-26T18:07:01;100898.7;;;10.29;64.0459
59987;BME280;46181;51.498;5.392;2024-02-26T18:11:31;100911;;;10.27;64.06445
59987;BME280;46181;51.498;5.392;2024-02-26T18:16:01;100924.5;;;10.29;64.04492
59987;BME280;46181;51.498;5.392;2024-02-26T18:20:31;100937.1;;;10.26;63.80469
59987;BME280;46181;51.498;5.392;2024-02-26T18:25:01;100945.9;;;10.28;63.78516
59987;BME280;46181;51.498;5.392;2024-02-26T18:29:31;100955;;;10.28;63.77441
59987;BME280;46181;51.498;5.392;2024-02-26T18:34:01;100953.7;;;10.22;63.54102
59987;BME280;46181;51.498;5.392;2024-02-26T18:38:31;100964.9;;;10.22;63.46289
59987;BME280;46181;51.498;5.392;2024-02-26T18:43:01;100977.3;;;10.19;63.43652
59987;BME280;46181;51.498;5.392;2024-02-26T18:47:31;100984;;;10.2;63.40234
59987;BME280;46181;51.498;5.392;2024-02-26T18:52:01;100987.3;;;10.19;63.43652
59987;BME280;46181;51.498;5.392;2024-02-26T18:56:31;100990.7;;;10.17;63.32031
59987;BME280;46181;51.498;5.392;2024-02-26T19:01:01;100993.3;;;10.15;63.31738
59987;BME280;46181;51.498;5.392;2024-02-26T19:05:31;101002.4;;;10.12;63.19043
59987;BME280;46181;51.498;5.392;2024-02-26T19:10:02;101013.2;;;10.08;63.06152
59987;BME280;46181;51.498;5.392;2024-02-26T19:14:31;101025.9;;;10.07;63.01367
59987;BME280;46181;51.498;5.392;2024-02-26T19:19:01;101040;;;10.08;62.99316
59987;BME280;46181;51.498;5.392;2024-02-26T19:23:31;101047.2;;;10.02;62.7832
59987;BME280;46181;51.498;5.392;2024-02-26T19:28:01;101053.2;;;10;62.94824
59987;BME280;46181;51.498;5.392;2024-02-26T19:32:31;101054;;;10.01;62.77051
59987;BME280;46181;51.498;5.392;2024-02-26T19:37:01;101057.7;;;9.99;62.7793
59987;BME280;46181;51.498;5.392;2024-02-26T19:41:31;101069.7;;;9.98;62.55371
59987;BME280;46181;51.498;5.392;2024-02-26T19:46:01;101074.2;;;9.91;62.49707
59987;BME280;46181;51.498;5.392;2024-02-26T19:50:31;101079.6;;;9.9;62.39453
59987;BME280;46181;51.498;5.392;2024-02-26T19:55:01;101083;;;9.9;62.51758
59987;BME280;46181;51.498;5.392;2024-02-26T19:59:31;101097.8;;;9.89;62.41602
59987;BME280;46181;51.498;5.392;2024-02-26T20:04:01;101103.9;;;9.86;62.34473
59987;BME280;46181;51.498;5.392;2024-02-26T20:08:31;101098.7;;;9.82;62.30566
59987;BME280;46181;51.498;5.392;2024-02-26T20:13:01;101098.7;;;9.84;62.30664
59987;BME280;46181;51.498;5.392;2024-02-26T20:17:31;101110.2;;;9.79;62.27832
59987;BME280;46181;51.498;5.392;2024-02-26T20:22:01;101122.9;;;9.8;62.24512
59987;BME280;46181;51.498;5.392;2024-02-26T20:26:31;101141.7;;;9.78;62.20898
59987;BME280;46181;51.498;5.392;2024-02-26T20:31:01;101140.2;;;9.75;62.04785
59987;BME280;46181;51.498;5.392;2024-02-26T20:35:31;101155.4;;;9.75;62.10449
59987;BME280;46181;51.498;5.392;2024-02-26T20:40:01;101163.9;;;9.75;62.08105
59987;BME280;46181;51.498;5.392;2024-02-26T20:44:31;101178.4;;;9.73;62.01074
59987;BME280;46181;51.498;5.392;2024-02-26T20:49:01;101185;;;9.73;61.94336
59987;BME280;46181;51.498;5.392;2024-02-26T20:53:31;101188.2;;;9.7;61.81641
59987;BME280;46181;51.498;5.392;2024-02-26T20:58:01;101193;;;9.7;61.86133
59987;BME280;46181;51.498;5.392;2024-02-26T21:02:31;101196.8;;;9.65;61.77637
59987;BME280;46181;51.498;5.392;2024-02-26T21:07:01;101207;;;9.64;61.74023
59987;BME280;46181;51.498;5.392;2024-02-26T21:11:33;101221.1;;;9.62;61.82715
59987;BME280;46181;51.498;5.392;2024-02-26T21:16:01;101236;;;9.64;61.7959
59987;BME280;46181;51.498;5.392;2024-02-26T21:20:31;101244.6;;;9.6;61.65625
59987;BME280;46181;51.498;5.392;2024-02-26T21:25:01;101249.1;;;9.59;61.56543
59987;BME280;46181;51.498;5.392;2024-02-26T21:29:31;101257.9;;;9.55;61.60352
59987;BME280;46181;51.498;5.392;2024-02-26T21:34:01;101260.7;;;9.55;61.6377
59987;BME280;46181;51.498;5.392;2024-02-26T21:38:31;101263.8;;;9.53;61.62402
59987;BME280;46181;51.498;5.392;2024-02-26T21:43:01;101268.5;;;9.57;61.5625
59987;BME280;46181;51.498;5.392;2024-02-26T21:47:31;101277.4;;;9.55;61.57031
59987;BME280;46181;51.498;5.392;2024-02-26T21:52:01;101278.6;;;9.56;61.54883
59987;BME280;46181;51.498;5.392;2024-02-26T21:56:31;101283;;;9.56;61.56055
59987;BME280;46181;51.498;5.392;2024-02-26T22:01:01;101287.8;;;9.52;61.46484
59987;BME280;46181;51.498;5.392;2024-02-26T22:05:32;101301.9;;;9.51;61.53027
59987;BME280;46181;51.498;5.392;2024-02-26T22:10:01;101302.8;;;9.5;61.37305
59987;BME280;46181;51.498;5.392;2024-02-26T22:14:31;101316.1;;;9.51;61.46387
59987;BME280;46181;51.498;5.392;2024-02-26T22:19:01;101311.3;;;9.5;61.39551
59987;BME280;46181;51.498;5.392;2024-02-26T22:23:31;101309.6;;;9.5;61.48535
59987;BME280;46181;51.498;5.392;2024-02-26T22:28:01;101315.2;;;9.48;61.50391
59987;BME280;46181;51.498;5.392;2024-02-26T22:32:31;101314;;;9.46;61.41309
59987;BME280;46181;51.498;5.392;2024-02-26T22:37:01;101313.6;;;9.47;61.41406
59987;BME280;46181;51.498;5.392;2024-02-26T22:41:31;101311.9;;;9.47;61.41309
59987;BME280;46181;51.498;5.392;2024-02-26T22:46:01;101319.6;;;9.47;61.44629
59987;BME280;46181;51.498;5.392;2024-02-26T22:50:31;101319;;;9.48;61.35742
59987;BME280;46181;51.498;5.392;2024-02-26T22:55:01;101314.7;;;9.44;61.42188
59987;BME280;46181;51.498;5.392;2024-02-26T22:59:31;101307.4;;;9.43;61.38672
59987;BME280;46181;51.498;5.392;2024-02-26T23:04:01;101309.8;;;9.44;61.3418
59987;BME280;46181;51.498;5.392;2024-02-26T23:08:31;101320.8;;;9.42;61.41797